createdAt,value
2022-11-30T00:01:38.816Z,44.40
2022-11-30T00:04:08.975Z,43.92
2022-11-30T00:06:41.381Z,41.95
2022-11-30T00:09:09.795Z,41.25
2022-11-30T00:11:38.261Z,43.53
2022-11-30T00:14:06.610Z,42.22
2022-11-30T00:16:34.942Z,44.53
2022-11-30T00:19:03.390Z,42.80
2022-11-30T00:21:31.908Z,45.50
2022-11-30T00:24:00.361Z,42.50
2022-11-30T00:26:29.738Z,42.75
2022-11-30T00:28:58.220Z,42.55
2022-11-30T00:31:26.685Z,39.92
2022-11-30T00:33:55.322Z,43.95
2022-11-30T00:36:24.125Z,42.42
2022-11-30T00:38:52.676Z,45.00
2022-11-30T00:41:23.722Z,40.67
2022-11-30T00:43:52.214Z,42.63
2022-11-30T00:46:20.640Z,41.35
2022-11-30T00:48:49.165Z,44.10
2022-11-30T00:51:18.632Z,42.88
2022-11-30T00:53:49.931Z,44.67
2022-11-30T00:56:18.319Z,48.28
2022-11-30T00:58:46.737Z,48.17
2022-11-30T01:01:15.176Z,44.28
2022-11-30T01:03:43.524Z,40.58
2022-11-30T01:06:11.832Z,47.38
2022-11-30T01:08:40.195Z,51.00
2022-11-30T01:11:31.927Z,49.78
2022-11-30T01:14:00.914Z,48.10
2022-11-30T01:16:32.339Z,47.75
2022-11-30T01:19:00.912Z,50.60
2022-11-30T01:21:29.915Z,45.78
2022-11-30T01:23:58.457Z,44.55
2022-11-30T01:26:26.876Z,43.42
2022-11-30T01:28:56.287Z,44.03
2022-11-30T01:31:25.066Z,41.83
2022-11-30T01:33:55.837Z,43.80
2022-11-30T01:38:59.703Z,46.50
2022-11-30T01:41:32.844Z,44.85
2022-11-30T01:44:07.199Z,46.28
2022-11-30T01:47:07.815Z,47.97
2022-11-30T01:49:48.641Z,50.75
2022-11-30T01:54:56.375Z,44.95
2022-11-30T01:57:35.714Z,53.30
2022-11-30T02:00:08.006Z,52.85
2022-11-30T02:02:55.765Z,48.72
2022-11-30T02:05:25.966Z,49.85
2022-11-30T02:07:55.155Z,53.63
2022-11-30T02:10:28.732Z,52.05
2022-11-30T02:13:13.799Z,54.53
2022-11-30T02:16:06.678Z,52.85
2022-11-30T02:18:54.440Z,51.92
2022-11-30T02:21:30.209Z,47.08
2022-11-30T02:24:37.067Z,46.28
2022-11-30T02:27:13.305Z,55.45
2022-11-30T02:29:47.201Z,48.00
2022-11-30T02:32:22.926Z,47.33
2022-11-30T02:34:53.244Z,46.28
2022-11-30T02:37:23.203Z,53.65
2022-11-30T02:39:51.583Z,47.70
2022-11-30T02:42:19.907Z,49.70
2022-11-30T02:44:51.313Z,46.63
2022-11-30T02:47:26.476Z,47.47
2022-11-30T02:50:22.851Z,50.08
2022-11-30T02:52:52.189Z,45.95
2022-11-30T02:55:20.773Z,48.03
2022-11-30T02:57:49.190Z,45.10
2022-11-30T03:00:18.029Z,45.35
2022-11-30T03:02:46.851Z,50.95
2022-11-30T03:05:15.405Z,48.00
2022-11-30T03:07:43.892Z,49.45
2022-11-30T03:10:12.443Z,54.03
2022-11-30T03:12:40.871Z,45.35
2022-11-30T03:15:10.553Z,52.22
2022-11-30T03:17:39.017Z,49.30
2022-11-30T03:20:08.605Z,58.63
2022-11-30T03:22:36.932Z,56.05
2022-11-30T03:25:05.700Z,51.47
2022-11-30T03:27:34.198Z,56.67
2022-11-30T03:30:03.368Z,60.80
2022-11-30T03:32:31.709Z,54.65
2022-11-30T03:35:00.032Z,58.17
2022-11-30T03:37:28.456Z,50.53
2022-11-30T03:39:58.490Z,51.92
2022-11-30T03:42:26.958Z,55.67
2022-11-30T03:44:55.338Z,51.35
2022-11-30T03:47:24.820Z,53.65
2022-11-30T03:49:53.532Z,53.90
2022-11-30T03:52:23.120Z,46.30
2022-11-30T03:54:51.562Z,48.80
2022-11-30T03:57:19.977Z,47.17
2022-11-30T03:59:49.099Z,48.72
2022-11-30T04:02:17.417Z,48.30
2022-11-30T04:04:46.089Z,53.20
2022-11-30T04:07:14.754Z,51.83
2022-11-30T04:09:43.244Z,49.28
2022-11-30T04:12:11.773Z,52.95
2022-11-30T04:14:41.037Z,56.45
2022-11-30T04:17:09.676Z,57.15
2022-11-30T04:19:38.039Z,53.45
2022-11-30T04:22:06.459Z,57.75
2022-11-30T04:24:35.771Z,73.43
2022-11-30T04:27:04.036Z,66.93
2022-11-30T04:29:32.634Z,70.22
2022-11-30T04:32:01.115Z,66.28
2022-11-30T04:34:29.532Z,58.88
2022-11-30T04:37:00.495Z,68.18
2022-11-30T04:39:29.146Z,62.55
2022-11-30T04:41:57.486Z,65.90
2022-11-30T04:44:25.888Z,66.53
2022-11-30T04:46:54.301Z,65.45
2022-11-30T04:49:22.813Z,57.90
2022-11-30T04:51:51.476Z,61.17
2022-11-30T04:54:19.772Z,63.25
2022-11-30T04:56:48.546Z,58.08
2022-11-30T04:59:16.910Z,55.97
2022-11-30T05:01:45.260Z,54.45
2022-11-30T05:04:13.717Z,48.88
2022-11-30T05:06:42.206Z,50.30
2022-11-30T05:09:10.832Z,46.75
2022-11-30T05:11:39.367Z,43.45
2022-11-30T05:14:07.800Z,45.22
2022-11-30T05:16:36.150Z,36.30
2022-11-30T05:19:04.537Z,33.47
2022-11-30T05:21:32.966Z,35.03
2022-11-30T05:24:02.536Z,32.83
2022-11-30T05:26:30.854Z,26.70
2022-11-30T05:28:59.417Z,27.90
2022-11-30T05:31:28.065Z,24.85
2022-11-30T05:33:57.426Z,22.98
2022-11-30T05:36:25.787Z,22.23
2022-11-30T05:38:54.134Z,23.50
2022-11-30T05:41:22.550Z,20.30
2022-11-30T05:43:51.102Z,20.10
2022-11-30T05:46:19.810Z,20.92
2022-11-30T05:48:49.164Z,19.92
2022-11-30T05:51:22.248Z,23.42
2022-11-30T05:53:55.998Z,26.27
2022-11-30T05:56:25.026Z,19.50
2022-11-30T05:58:53.579Z,19.63
2022-11-30T06:01:26.835Z,20.55
2022-11-30T06:03:56.485Z,18.13
2022-11-30T06:06:24.844Z,18.00
2022-11-30T06:08:54.260Z,19.05
2022-11-30T06:11:24.593Z,16.58
2022-11-30T06:13:53.041Z,21.15
2022-11-30T06:16:21.875Z,19.90
2022-11-30T06:18:50.281Z,21.05
2022-11-30T06:21:24.119Z,21.67
2022-11-30T06:23:54.162Z,23.27
2022-11-30T06:26:22.639Z,22.40
2022-11-30T06:28:50.942Z,24.83
2022-11-30T06:31:19.383Z,26.83
2022-11-30T06:33:47.969Z,30.95
2022-11-30T06:36:22.319Z,30.00
2022-11-30T06:38:51.553Z,31.30
2022-11-30T06:41:21.507Z,30.38
2022-11-30T06:43:49.861Z,32.70
2022-11-30T06:46:19.293Z,29.73
2022-11-30T06:48:50.954Z,30.50
2022-11-30T06:51:20.273Z,26.70
2022-11-30T06:53:49.065Z,27.27
2022-11-30T06:56:17.474Z,28.63
2022-11-30T06:58:45.922Z,31.85
2022-11-30T07:01:15.346Z,29.88
2022-11-30T07:03:44.041Z,29.08
2022-11-30T07:06:14.678Z,30.88
2022-11-30T07:08:43.829Z,32.67
2022-11-30T07:11:13.282Z,31.77
2022-11-30T07:13:41.961Z,38.97
2022-11-30T07:16:12.026Z,31.95
2022-11-30T07:18:40.685Z,29.08
2022-11-30T07:21:10.949Z,33.78
2022-11-30T07:23:58.588Z,36.53
2022-11-30T07:26:35.694Z,40.33
2022-11-30T07:29:05.330Z,35.13
2022-11-30T07:31:35.949Z,32.65
2022-11-30T07:34:09.486Z,37.33
2022-11-30T07:36:37.876Z,33.55
2022-11-30T07:39:06.410Z,34.20
2022-11-30T07:41:35.792Z,38.58
2022-11-30T07:44:05.814Z,38.05
2022-11-30T07:46:36.611Z,40.70
2022-11-30T07:51:35.551Z,39.78
2022-11-30T07:54:04.209Z,40.20
2022-11-30T07:56:32.580Z,37.65
2022-11-30T07:59:02.291Z,41.25
2022-11-30T08:01:32.518Z,37.58
2022-11-30T08:04:01.205Z,37.65
2022-11-30T08:06:31.845Z,41.95
2022-11-30T08:09:04.552Z,37.90
2022-11-30T08:11:36.016Z,35.10
2022-11-30T08:14:04.725Z,35.45
2022-11-30T08:16:38.139Z,34.88
2022-11-30T08:19:06.725Z,37.67
2022-11-30T08:21:35.147Z,34.28
2022-11-30T08:24:03.847Z,34.65
2022-11-30T08:26:35.844Z,34.38
2022-11-30T08:29:04.252Z,34.83
2022-11-30T08:31:35.642Z,32.40
2022-11-30T08:34:06.832Z,35.08
2022-11-30T08:36:35.585Z,34.08
2022-11-30T08:39:05.706Z,37.13
2022-11-30T08:41:35.576Z,32.72
2022-11-30T08:44:04.207Z,33.90
2022-11-30T08:46:51.413Z,29.25
2022-11-30T08:49:23.469Z,35.08
2022-11-30T08:54:48.896Z,35.72
2022-11-30T08:57:20.186Z,33.03
2022-11-30T08:59:49.870Z,32.30
2022-11-30T09:02:19.849Z,38.37
2022-11-30T09:05:09.368Z,38.08
2022-11-30T09:07:37.402Z,37.45
2022-11-30T09:10:06.399Z,39.60
2022-11-30T09:12:37.440Z,37.78
2022-11-30T09:15:07.776Z,41.85
2022-11-30T09:17:37.405Z,40.90
2022-11-30T09:20:07.775Z,42.67
2022-11-30T09:22:36.048Z,40.55
2022-11-30T09:25:04.983Z,43.90
2022-11-30T09:27:35.987Z,38.22
2022-11-30T09:30:04.885Z,41.67
2022-11-30T09:32:36.253Z,35.47
2022-11-30T09:35:08.596Z,35.85
2022-11-30T09:37:40.292Z,36.55
2022-11-30T09:40:09.343Z,35.10
2022-11-30T09:43:06.119Z,38.10
2022-11-30T09:45:36.466Z,43.20
2022-11-30T09:48:23.674Z,42.20
2022-11-30T09:50:54.973Z,40.67
2022-11-30T09:53:45.937Z,44.38
2022-11-30T09:56:26.767Z,40.58
2022-11-30T10:01:46.183Z,38.67
2022-11-30T10:04:27.710Z,43.08
2022-11-30T10:07:37.211Z,43.22
2022-11-30T10:10:32.768Z,42.05
2022-11-30T10:13:24.219Z,45.65
2022-11-30T10:16:04.302Z,48.88
2022-11-30T10:19:20.517Z,43.05
2022-11-30T10:22:08.210Z,51.28
2022-11-30T10:25:14.489Z,48.58
2022-11-30T10:28:38.520Z,52.05
2022-11-30T10:31:00.029Z,49.88
2022-11-30T10:33:38.715Z,61.45
2022-11-30T10:36:13.318Z,60.35
2022-11-30T10:39:02.358Z,53.72
2022-11-30T10:41:52.621Z,55.42
2022-11-30T10:44:40.174Z,55.05
2022-11-30T10:47:22.836Z,52.20
2022-11-30T10:49:54.658Z,49.35
2022-11-30T10:52:30.082Z,52.22
2022-11-30T10:55:04.223Z,49.70
2022-11-30T10:57:33.646Z,45.15
2022-11-30T11:00:05.724Z,48.72
2022-11-30T11:02:36.268Z,50.25
2022-11-30T11:05:30.993Z,50.30
2022-11-30T11:08:07.097Z,55.53
2022-11-30T11:10:45.252Z,50.28
2022-11-30T11:13:19.323Z,52.55
2022-11-30T11:16:00.867Z,51.53
2022-11-30T11:18:34.606Z,48.47
2022-11-30T11:21:06.111Z,48.05
2022-11-30T11:23:40.573Z,47.72
2022-11-30T11:26:25.945Z,51.58
2022-11-30T11:29:02.466Z,46.22
2022-11-30T11:31:50.775Z,53.47
2022-11-30T11:34:47.975Z,50.78
2022-11-30T11:37:28.812Z,49.97
2022-11-30T11:40:17.854Z,48.38
2022-11-30T11:42:54.344Z,40.67
2022-11-30T11:45:24.125Z,52.83
2022-11-30T11:48:00.796Z,36.73
2022-11-30T11:51:05.157Z,45.97
2022-11-30T11:53:23.094Z,44.90
2022-11-30T11:56:00.972Z,46.28
2022-11-30T11:58:49.331Z,46.80
2022-11-30T12:01:57.442Z,47.55
2022-11-30T12:04:27.570Z,44.63
2022-11-30T12:06:59.031Z,46.53
2022-11-30T12:09:39.631Z,49.05
2022-11-30T12:12:13.419Z,43.95
2022-11-30T12:14:41.852Z,47.78
2022-11-30T12:17:32.111Z,46.47
2022-11-30T12:20:16.755Z,48.30
2022-11-30T12:23:35.777Z,53.63
2022-11-30T12:26:26.252Z,44.40
2022-11-30T12:28:54.626Z,45.67
2022-11-30T12:31:41.825Z,44.95
2022-11-30T12:34:24.162Z,56.40
2022-11-30T12:37:08.780Z,49.25
2022-11-30T12:39:40.103Z,52.30
2022-11-30T12:42:21.235Z,49.30
2022-11-30T12:45:17.159Z,45.83
2022-11-30T12:48:08.970Z,48.38
2022-11-30T12:50:50.556Z,50.50
2022-11-30T12:53:27.818Z,50.60
2022-11-30T12:56:14.547Z,49.50
2022-11-30T12:59:01.092Z,51.97
2022-11-30T13:01:32.347Z,54.33
2022-11-30T13:04:44.044Z,54.42
2022-11-30T13:07:41.916Z,52.90
2022-11-30T13:10:39.083Z,50.85
2022-11-30T13:13:16.233Z,50.58
2022-11-30T13:15:46.514Z,52.50
2022-11-30T13:18:20.393Z,49.15
2022-11-30T13:21:06.354Z,50.15
2022-11-30T13:23:47.905Z,56.00
2022-11-30T13:26:55.635Z,49.47
2022-11-30T13:29:42.635Z,50.00
2022-11-30T13:32:48.618Z,58.67
2022-11-30T13:35:29.726Z,54.42
2022-11-30T13:38:35.056Z,53.30
2022-11-30T13:40:58.830Z,52.65
2022-11-30T13:43:30.762Z,56.92
2022-11-30T13:46:23.818Z,53.38
2022-11-30T13:49:37.439Z,58.55
2022-11-30T13:52:24.436Z,56.25
2022-11-30T13:54:58.383Z,58.95
2022-11-30T13:57:27.994Z,53.35
2022-11-30T13:59:58.383Z,63.45
2022-11-30T14:02:41.804Z,56.78
2022-11-30T14:05:16.593Z,57.38
2022-11-30T14:08:10.052Z,60.47
2022-11-30T14:10:44.491Z,56.92
2022-11-30T14:13:16.052Z,56.65
2022-11-30T14:15:44.881Z,59.60
2022-11-30T14:18:22.456Z,61.45
2022-11-30T14:21:17.601Z,58.10
2022-11-30T14:23:53.933Z,57.15
2022-11-30T14:26:29.094Z,55.92
2022-11-30T14:42:59.221Z,53.13
2022-11-30T14:45:33.110Z,52.30
2022-11-30T14:48:06.868Z,55.03
2022-11-30T14:50:36.192Z,56.33
2022-11-30T14:53:35.648Z,59.30
2022-11-30T14:56:22.745Z,58.58
2022-11-30T14:58:57.654Z,59.03
2022-11-30T15:01:32.556Z,63.25
2022-11-30T15:04:10.231Z,57.30
2022-11-30T15:06:40.253Z,58.15
2022-11-30T15:09:22.701Z,64.40
2022-11-30T15:11:52.806Z,64.60
2022-11-30T15:14:21.900Z,64.60
2022-11-30T15:16:57.828Z,61.70
2022-11-30T15:19:31.784Z,56.53
2022-11-30T15:22:03.254Z,61.58
2022-11-30T15:24:31.992Z,59.53
2022-11-30T15:27:15.156Z,57.45
2022-11-30T15:29:49.061Z,62.67
2022-11-30T15:32:23.090Z,58.67
2022-11-30T15:34:57.695Z,61.30
2022-11-30T15:37:35.854Z,63.58
2022-11-30T15:40:07.781Z,58.50
2022-11-30T15:42:43.671Z,60.63
2022-11-30T15:45:33.342Z,62.20
2022-11-30T15:48:05.595Z,63.83
2022-11-30T15:50:37.707Z,67.53
2022-11-30T15:53:30.166Z,62.95
2022-11-30T15:56:09.410Z,61.50
2022-11-30T15:59:01.355Z,54.08
2022-11-30T16:01:32.207Z,67.50
2022-11-30T16:04:06.088Z,64.55
2022-11-30T16:06:46.016Z,62.42
2022-11-30T16:09:32.381Z,59.95
2022-11-30T16:12:02.537Z,70.85
2022-11-30T16:14:31.743Z,66.75
2022-11-30T16:17:05.490Z,64.35
2022-11-30T16:19:37.117Z,62.50
2022-11-30T16:22:05.418Z,67.20
2022-11-30T16:24:33.842Z,68.53
2022-11-30T16:27:20.811Z,65.95
2022-11-30T16:29:52.607Z,70.00
2022-11-30T16:32:21.636Z,62.65
2022-11-30T16:34:50.005Z,61.40
2022-11-30T16:37:18.521Z,64.20
2022-11-30T16:39:47.204Z,69.28
2022-11-30T16:42:15.879Z,63.13
2022-11-30T16:44:44.681Z,63.42
2022-11-30T16:47:13.032Z,66.75
2022-11-30T16:49:41.429Z,65.50
2022-11-30T16:52:16.227Z,68.05
2022-11-30T16:54:44.594Z,74.00
2022-11-30T16:57:14.016Z,75.30
2022-11-30T16:59:42.496Z,71.57
2022-11-30T17:02:20.144Z,66.50
2022-11-30T17:04:49.765Z,112.78
2022-11-30T17:07:18.280Z,88.43
2022-11-30T17:09:46.785Z,75.15
2022-11-30T17:12:18.315Z,78.15
2022-11-30T17:14:46.971Z,69.00
2022-11-30T17:17:16.199Z,74.80
2022-11-30T17:19:44.587Z,69.45
2022-11-30T17:22:13.106Z,70.43
2022-11-30T17:24:41.518Z,73.10
2022-11-30T17:27:11.996Z,66.88
2022-11-30T17:29:43.092Z,70.57
2022-11-30T17:32:11.427Z,75.38
2022-11-30T17:34:39.928Z,70.95
2022-11-30T17:37:08.746Z,75.88
2022-11-30T17:39:37.038Z,64.88
2022-11-30T17:42:05.634Z,86.15
2022-11-30T17:44:35.136Z,73.55
2022-11-30T17:47:03.425Z,72.82
2022-11-30T17:49:33.030Z,73.95
2022-11-30T17:52:02.264Z,75.20
2022-11-30T17:54:30.886Z,77.47
2022-11-30T17:56:59.989Z,71.00
2022-11-30T17:59:28.448Z,80.95
2022-11-30T18:01:57.625Z,70.90
2022-11-30T18:04:26.060Z,84.30
2022-11-30T18:06:54.532Z,72.70
2022-11-30T18:09:24.523Z,70.72
2022-11-30T18:11:52.834Z,73.13
2022-11-30T18:14:21.345Z,79.00
2022-11-30T18:16:49.785Z,79.55
2022-11-30T18:19:18.389Z,80.40
2022-11-30T18:21:47.629Z,72.47
2022-11-30T18:24:17.276Z,76.85
2022-11-30T18:26:49.758Z,81.50
2022-11-30T18:29:18.122Z,77.57
2022-11-30T18:31:48.776Z,75.97
2022-11-30T18:34:17.430Z,70.00
2022-11-30T18:36:46.163Z,73.90
2022-11-30T18:39:14.415Z,82.50
2022-11-30T18:41:42.775Z,79.10
2022-11-30T18:44:11.409Z,121.53
2022-11-30T18:46:39.914Z,82.15
2022-11-30T18:49:08.458Z,82.63
2022-11-30T18:51:36.970Z,73.68
2022-11-30T18:54:08.068Z,73.75
2022-11-30T18:56:38.973Z,74.00
2022-11-30T18:59:12.307Z,84.95
2022-11-30T19:01:41.304Z,75.72
2022-11-30T19:04:11.512Z,78.60
2022-11-30T19:06:41.620Z,79.35
2022-11-30T19:09:14.766Z,80.65
2022-11-30T19:11:43.615Z,79.32
2022-11-30T19:14:14.158Z,90.97
2022-11-30T19:16:43.249Z,86.07
2022-11-30T19:19:14.199Z,85.13
2022-11-30T19:21:44.809Z,94.13
2022-11-30T19:24:14.461Z,81.47
2022-11-30T19:26:42.962Z,91.15
2022-11-30T19:29:12.139Z,89.15
2022-11-30T19:31:41.210Z,88.28
2022-11-30T19:34:12.892Z,81.97
2022-11-30T19:36:43.635Z,82.45
2022-11-30T19:39:12.221Z,82.53
2022-11-30T19:41:40.587Z,84.70
2022-11-30T19:44:12.930Z,90.47
2022-11-30T19:46:41.870Z,83.55
2022-11-30T19:49:11.038Z,91.10
2022-11-30T19:51:39.477Z,89.45
2022-11-30T19:54:07.895Z,93.07
2022-11-30T19:56:37.347Z,85.72
2022-11-30T19:59:06.274Z,90.10
2022-11-30T20:01:36.224Z,93.47
2022-11-30T20:04:04.896Z,91.07
2022-11-30T20:06:36.217Z,91.55
2022-11-30T20:09:06.946Z,93.00
2022-11-30T20:11:36.897Z,89.13
2022-11-30T20:14:05.274Z,88.20
2022-11-30T20:16:33.722Z,94.85
2022-11-30T20:19:03.066Z,92.40
2022-11-30T20:21:33.894Z,92.32
2022-11-30T20:24:06.207Z,94.00
2022-11-30T20:26:38.318Z,88.85
2022-11-30T20:29:11.136Z,91.07
2022-11-30T20:31:40.293Z,94.45
2022-11-30T20:34:10.525Z,87.15
2022-11-30T20:36:39.099Z,89.25
2022-11-30T20:39:07.772Z,96.07
2022-11-30T20:41:36.218Z,91.88
2022-11-30T20:44:05.995Z,96.88
2022-11-30T20:46:35.855Z,90.30
2022-11-30T20:49:13.660Z,92.80
2022-11-30T20:51:42.099Z,98.05
2022-11-30T20:54:12.162Z,92.72
2022-11-30T20:56:40.873Z,66.53
2022-11-30T20:59:14.730Z,89.68
2022-11-30T21:01:45.379Z,88.60
2022-11-30T21:04:17.014Z,88.47
2022-11-30T21:06:49.149Z,100.22
2022-11-30T21:09:20.837Z,90.55
2022-11-30T21:11:49.502Z,83.70
2022-11-30T21:14:18.189Z,89.75
2022-11-30T21:16:46.464Z,81.13
2022-11-30T21:19:17.603Z,86.10
2022-11-30T21:21:46.461Z,85.57
2022-11-30T21:24:15.425Z,89.53
2022-11-30T21:26:43.977Z,99.32
2022-11-30T21:29:15.431Z,84.82
2022-11-30T21:31:45.112Z,82.60
2022-11-30T21:34:14.084Z,86.78
2022-11-30T21:36:43.046Z,75.93
2022-11-30T21:39:15.360Z,82.82
2022-11-30T21:41:44.283Z,92.38
2022-11-30T21:44:14.560Z,84.47
2022-11-30T21:46:45.858Z,78.43
2022-11-30T21:49:15.574Z,83.28
2022-11-30T21:51:44.202Z,76.07
2022-11-30T21:54:13.638Z,82.20
2022-11-30T21:56:44.762Z,81.45
2022-11-30T21:59:14.755Z,81.28
2022-11-30T22:01:44.988Z,82.30
2022-11-30T22:04:14.548Z,84.13
2022-11-30T22:06:43.631Z,77.20
2022-11-30T22:09:15.354Z,83.43
2022-11-30T22:11:45.703Z,77.45
2022-11-30T22:14:16.321Z,86.18
2022-11-30T22:16:45.440Z,75.18
2022-11-30T22:19:14.449Z,78.25
2022-11-30T22:21:49.460Z,77.68
2022-11-30T22:24:19.074Z,81.80
2022-11-30T22:26:49.237Z,78.47
2022-11-30T22:29:22.963Z,83.43
2022-11-30T22:31:54.130Z,77.32
2022-11-30T22:34:23.416Z,81.07
2022-11-30T22:36:51.886Z,87.18
2022-11-30T22:39:22.126Z,87.13
2022-11-30T22:41:55.734Z,86.30
2022-11-30T22:44:26.571Z,77.72
2022-11-30T22:46:55.716Z,69.47
2022-11-30T22:49:24.599Z,82.47
2022-11-30T22:51:53.442Z,74.70
2022-11-30T22:54:22.295Z,83.28
2022-11-30T22:56:51.080Z,77.50
2022-11-30T22:59:19.431Z,87.07
2022-11-30T23:01:50.678Z,80.85
2022-11-30T23:04:23.302Z,89.07
2022-11-30T23:06:54.780Z,81.22
2022-11-30T23:09:24.295Z,85.75
2022-11-30T23:11:52.825Z,83.40
2022-11-30T23:14:21.392Z,85.05
2022-11-30T23:16:49.840Z,91.18
2022-11-30T23:19:18.632Z,90.65
2022-11-30T23:21:50.154Z,85.85
2022-11-30T23:24:21.039Z,86.07
2022-11-30T23:29:19.080Z,86.40
2022-11-30T23:31:54.334Z,95.43
2022-11-30T23:34:22.801Z,82.85
2022-11-30T23:36:51.679Z,83.45
2022-11-30T23:39:23.120Z,86.60
2022-11-30T23:41:51.554Z,85.78
2022-11-30T23:44:23.622Z,88.57
2022-11-30T23:47:00.656Z,84.35
2022-11-30T23:49:29.439Z,88.22
2022-11-30T23:51:58.902Z,87.70
2022-11-30T23:54:27.646Z,89.20
2022-11-30T23:56:56.928Z,80.93
2022-11-30T23:59:25.266Z,88.35
